Terminal Aerodrome Forecast
Issued by NWS

Home | Current Version | Previous Version | Text Only | Print | Product List | Glossary On
Versions: 1 2 3 4 5 6 7 8 9 10 11 12 13 14
000
FTUS46 KPDT 012300
TAFBDN
TAF
KBDN 012320Z 0200/0224 VRB05KT P6SM SKC
     FM020600 VRB05KT P6SM FEW120
     FM020900 21006KT P6SM FEW100
     FM021900 35008KT P6SM FEW150=

USA.gov is the U.S. government's official web portal to all federal, state and local government web resources and services.